Strona główna
METAR-TAF:

METAR-TAF

Lotnisko :

Port lotniczy Caracas

Caracas, Wenezuela

Szerokość geograficzna: 10-36N, Długość geograficzna: 066-59W, wysokość: 43 m

Aktualna obserwacja pogody

Raport powstał 25 minut temu, godzina 05:02 UTC
Wiatr 4 kt od wschód
Temperatura 25°C
Ciśnienie 1015 hPa

METAR: SVMI 280502Z AUTO 09004KT NCD 25/// Q1015

czas: 01:27 (05:27 UTC)

Prognoza

Raport powstał 7 godziny i 27 minut temu, godzina 22:00 UTC
Prognoza ważna od 28 godzina 00 UTC do 29 godzina 00 UTC
Wiatr 3 kt od wschód
Widzialność 10 km lub więcej
Mało chmury na wysokości 1600 ft
Przerywane chmury na wysokości 10000 ft
Stopniowe zmiany
od 28 godzina 00 UTC do 28 godzina 04 UTC
Wiatr 5 kt od wschód
Mało chmury na wysokości 1600 ft
Rozproszone chmury na wysokości 10000 ft

TAF: SVMI 272200Z 2800/2900 09003KT 9999 FEW016 BKN100 TX30/18Z TN22/07Z BECMG 2800/2804 09005KT FEW016 SCT100

Obserwacja i prognoza pogody dla ponad 4000 lotnisk (raport METAR i TAF).

Dostępne stacje oznaczono żółtymi i czerwonymi punktami na mapie.

Najedź kursorem aby zobaczyć nazwę stacji.

Kliknij aby zobaczyć obserwacje i prognozy pogody.

Aby zmienić mapę: kliknij na zielony przycisk z czarnym krzyżykiem, aby powiększyć; na zielony przycisk z myślnikiem, aby pomniejszyć; na zielone strzałki, aby przejść do map sąsiednich.


METAR-TAF: